首页
METAR-TAF:

METAR-TAF

机场 :

Pian Rosa, 意大利

纬度: 45-56N, 经度: 007-42E, 海拔: 3480米

当前天气观测

该预报发布于44分钟前的23:55 UTC
风速9节,风向南转西南,有时为21节阵风
温度 -12°C
湿度 21%
气压 999 hPa
能见度10公里或以上
1500米以下无云,无积雨云

METAR: LIMH 132355Z 20009G21KT CAVOK M12/M30 Q0999 RMK SKC MON LIB VAL NIL VIS MIN 9999

时间: 01:39 (00:39 UTC)


TAF: 丢失

超过4000个机场的气象观测和天气预报(METAR&TAF报告)。

可查询的气象台以黄色和红色小点在地图上表示。

将鼠标移到小点上方,可查看气象台名称。

然后点击查看天气观测和预报。

如需切换地图:点击带黑十字的绿色按钮放大地图;点击带横线的绿色按钮缩小地图;或者点击绿色箭头查看邻近地区的地图。


METAR-TAF: